Time;durP1;ratioP1;P1;durP2;ratioP2;P2;SDS_P1;SDS_P2;PMS_P1;PMS_P2;Temp;Humidity;BMP_temperature;BMP_pressure;BME280_temperature;BME280_humidity;BME280_pressure;Samples;Min_cycle;Max_cycle;Signal;HPM_P1;HPM_P2
2023/04/06 00:00:00;;;;;;;22.62;13.05;;;;;;;-1.51;62.00;100378.62;1760577;81;21103;-75
2023/04/06 00:02:26;;;;;;;24.85;13.03;;;;;;;-1.35;61.58;100398.85;1769415;80;21002;-75
2023/04/06 00:04:52;;;;;;;22.58;12.45;;;;;;;-1.33;61.66;100392.48;1770627;80;21450;-75
2023/04/06 00:07:19;;;;;;;24.47;12.18;;;;;;;-1.32;61.55;100401.45;1766716;79;21036;-74
2023/04/06 00:09:45;;;;;;;23.45;13.30;;;;;;;-1.32;61.58;100396.33;1782504;80;21036;-76
2023/04/06 00:12:12;;;;;;;23.85;12.60;;;;;;;-1.32;61.52;100397.61;1786069;79;20971;-76
2023/04/06 00:14:38;;;;;;;22.73;13.28;;;;;;;-1.31;61.32;100397.21;1774971;80;20954;-76
2023/04/06 00:17:05;;;;;;;23.42;12.13;;;;;;;-1.34;62.01;100400.59;1759888;79;21532;-75
2023/04/06 00:19:31;;;;;;;21.80;12.10;;;;;;;-1.34;62.05;100395.47;1770413;80;21418;-75
2023/04/06 00:21:58;;;;;;;19.87;11.83;;;;;;;-1.34;61.54;100396.75;1763099;80;21589;-72
2023/04/06 00:24:24;;;;;;;21.42;11.25;;;;;;;-1.35;61.52;100395.02;1764432;80;20955;-73
2023/04/06 00:26:50;;;;;;;24.20;11.43;;;;;;;-1.36;61.38;100399.70;1764542;79;21023;-74
2023/04/06 00:29:16;;;;;;;19.15;9.93;;;;;;;-1.39;61.50;100397.11;1763374;80;21107;-74
2023/04/06 00:31:43;;;;;;;18.15;10.05;;;;;;;-1.40;61.32;100392.81;1764551;80;22270;-76
2023/04/06 00:34:10;;;;;;;22.40;10.65;;;;;;;-1.42;61.55;100397.94;1762602;80;21104;-76
2023/04/06 00:36:36;;;;;;;23.83;11.48;;;;;;;-1.41;61.39;100394.94;1768411;80;20968;-74
2023/04/06 00:39:02;;;;;;;17.65;10.28;;;;;;;-1.40;61.46;100395.38;1761248;80;21089;-72
2023/04/06 00:41:30;;;;;;;22.93;9.78;;;;;;;-1.41;61.40;100396.22;1768287;80;21002;-74
2023/04/06 00:43:56;;;;;;;18.60;10.85;;;;;;;-1.43;61.37;100392.78;1765266;80;21052;-75
2023/04/06 00:46:23;;;;;;;17.55;9.25;;;;;;;-1.45;61.56;100388.93;1768803;80;20947;-70
2023/04/06 00:48:49;;;;;;;18.73;8.60;;;;;;;-1.43;61.58;100395.34;1766302;80;21466;-74
2023/04/06 00:51:15;;;;;;;15.65;8.93;;;;;;;-1.45;61.45;100398.33;1769569;80;21513;-75
2023/04/06 00:53:41;;;;;;;17.30;8.83;;;;;;;-1.48;61.44;100395.30;1761289;80;21036;-75
2023/04/06 00:56:09;;;;;;;15.13;8.73;;;;;;;-1.47;61.67;100390.61;1767183;80;21688;-73
2023/04/06 00:58:38;;;;;;;15.05;8.43;;;;;;;-1.45;61.40;100389.36;1781425;80;21416;-75
2023/04/06 01:01:05;;;;;;;18.02;8.85;;;;;;;-1.44;61.47;100393.63;1749299;80;21040;-74
2023/04/06 01:03:31;;;;;;;19.25;8.08;;;;;;;-1.46;61.46;100384.62;1764157;80;21744;-74
2023/04/06 01:05:58;;;;;;;18.77;8.75;;;;;;;-1.46;61.39;100378.23;1768185;80;21473;-75
2023/04/06 01:08:25;;;;;;;17.32;9.35;;;;;;;-1.45;61.42;100386.80;1768227;80;21499;-75
2023/04/06 01:10:51;;;;;;;18.95;9.63;;;;;;;-1.44;61.36;100385.94;1753257;80;20958;-70
2023/04/06 01:13:17;;;;;;;19.98;8.80;;;;;;;-1.46;61.37;100379.94;1744023;81;21043;-75
2023/04/06 01:15:43;;;;;;;16.95;9.30;;;;;;;-1.46;61.43;100387.62;1744834;81;21147;-75
2023/04/06 01:18:12;;;;;;;17.17;8.73;;;;;;;-1.44;61.49;100388.51;1740063;82;21024;-75
2023/04/06 01:20:38;;;;;;;18.37;7.75;;;;;;;-1.48;61.33;100382.92;1741555;81;21054;-73
2023/04/06 01:23:05;;;;;;;17.52;8.50;;;;;;;-1.52;61.47;100386.27;1766971;80;20962;-75
2023/04/06 01:25:31;;;;;;;17.00;7.67;;;;;;;-1.51;61.54;100386.30;1746076;81;20997;-75
2023/04/06 01:27:57;;;;;;;15.20;7.87;;;;;;;-1.53;61.48;100390.96;1742568;81;21275;-75
2023/04/06 01:30:23;;;;;;;13.55;8.03;;;;;;;-1.56;61.54;100380.69;1738965;81;20996;-74
2023/04/06 01:32:50;;;;;;;15.58;7.45;;;;;;;-1.59;61.60;100378.52;1764117;81;20953;-73
2023/04/06 01:35:18;;;;;;;18.70;8.53;;;;;;;-1.58;61.64;100385.34;1747270;81;21032;-73
2023/04/06 01:37:45;;;;;;;17.90;8.38;;;;;;;-1.59;61.74;100383.64;1761767;80;21575;-75
2023/04/06 01:40:11;;;;;;;17.95;9.10;;;;;;;-1.56;61.68;100386.66;1764476;80;21527;-74
2023/04/06 01:42:38;;;;;;;12.88;8.10;;;;;;;-1.60;61.81;100378.09;1762183;81;21504;-74
2023/04/06 01:45:05;;;;;;;18.10;8.10;;;;;;;-1.59;61.91;100379.80;1743075;81;20929;-76
2023/04/06 01:47:31;;;;;;;14.95;7.55;;;;;;;-1.58;61.89;100380.65;1746950;81;21547;-73
2023/04/06 01:49:58;;;;;;;15.28;6.95;;;;;;;-1.57;61.91;100378.52;1740811;82;21021;-75
2023/04/06 01:52:24;;;;;;;16.45;7.67;;;;;;;-1.56;61.95;100380.69;1739817;81;20997;-74
2023/04/06 01:54:50;;;;;;;21.60;8.00;;;;;;;-1.56;61.92;100380.69;1740092;81;21099;-74
2023/04/06 01:57:16;;;;;;;15.80;7.65;;;;;;;-1.52;62.04;100384.56;1743446;81;21002;-74
2023/04/06 01:59:43;;;;;;;14.75;7.37;;;;;;;-1.49;62.03;100379.90;1745232;81;20994;-74
2023/04/06 02:02:09;;;;;;;12.93;6.95;;;;;;;-1.50;61.99;100380.75;1739863;82;21012;-75
2023/04/06 02:04:35;;;;;;;15.78;7.03;;;;;;;-1.52;62.03;100381.14;1738222;81;20999;-74
2023/04/06 02:07:01;;;;;;;11.57;6.17;;;;;;;-1.53;62.08;100380.29;1726837;81;21055;-74
2023/04/06 02:09:28;;;;;;;12.58;7.40;;;;;;;-1.53;62.06;100383.28;1741864;80;21465;-74
2023/04/06 02:11:55;;;;;;;15.58;7.80;;;;;;;-1.56;62.15;100379.41;1737827;81;21143;-75
2023/04/06 02:14:23;;;;;;;13.68;7.75;;;;;;;-1.61;62.20;100377.62;1769621;80;20978;-76
2023/04/06 02:16:50;;;;;;;18.98;8.00;;;;;;;-1.60;62.30;100376.81;1763918;80;21010;-75
2023/04/06 02:19:16;;;;;;;11.00;6.53;;;;;;;-1.60;62.27;100377.20;1764254;80;20997;-73
2023/04/06 02:21:42;;;;;;;15.32;6.65;;;;;;;-1.61;62.32;100371.23;1761231;80;21498;-75
2023/04/06 02:24:09;;;;;;;12.05;6.20;;;;;;;-1.61;62.38;100376.34;1762967;80;20966;-75
2023/04/06 02:26:35;;;;;;;9.48;6.05;;;;;;;-1.62;62.34;100376.34;1771965;80;21032;-74
2023/04/06 02:29:02;;;;;;;13.13;6.80;;;;;;;-1.63;62.37;100375.46;1762582;80;21018;-74
2023/04/06 02:31:28;;;;;;;15.58;6.75;;;;;;;-1.63;62.42;100378.02;1766239;80;21070;-75
2023/04/06 02:33:54;;;;;;;13.03;7.10;;;;;;;-1.64;62.47;100377.59;1762173;80;20998;-70
2023/04/06 02:36:20;;;;;;;11.88;6.55;;;;;;;-1.67;62.43;100377.98;1763305;80;20964;-74
2023/04/06 02:38:47;;;;;;;14.98;7.70;;;;;;;-1.70;62.45;100376.23;1760365;80;21028;-75
2023/04/06 02:41:13;;;;;;;17.85;6.85;;;;;;;-1.72;62.58;100384.31;1761584;80;21542;-74
2023/04/06 02:43:39;;;;;;;18.35;8.83;;;;;;;-1.76;62.60;100377.45;1756620;80;21560;-74
2023/04/06 02:46:10;;;;;;;19.42;9.38;;;;;;;-1.77;62.58;100387.23;1766555;80;21446;-74
2023/04/06 02:48:36;;;;;;;18.73;9.93;;;;;;;-1.81;62.62;100384.20;1765268;80;21061;-74
2023/04/06 02:51:02;;;;;;;21.50;10.60;;;;;;;-1.84;62.63;100384.16;1758979;80;20985;-75
2023/04/06 02:53:28;;;;;;;24.23;11.65;;;;;;;-1.89;62.65;100387.07;1762923;80;21014;-74
2023/04/06 02:55:55;;;;;;;24.10;11.57;;;;;;;-1.93;62.80;100390.41;1761458;80;20978;-73
2023/04/06 02:58:22;;;;;;;20.70;10.60;;;;;;;-1.95;62.78;100387.84;1760027;80;21004;-74
2023/04/06 03:00:48;;;;;;;24.00;10.85;;;;;;;-1.96;62.90;100392.93;1761651;80;20951;-74
2023/04/06 03:03:14;;;;;;;22.20;12.28;;;;;;;-1.97;62.94;100389.94;1762286;80;20971;-70
2023/04/06 03:05:41;;;;;;;25.02;12.25;;;;;;;-1.98;63.09;100392.07;1765768;80;20950;-74
2023/04/06 03:08:07;;;;;;;36.15;16.02;;;;;;;-2.03;63.08;100395.41;1765025;80;21089;-73
2023/04/06 03:10:37;;;;;;;46.23;20.43;;;;;;;-2.05;63.11;100400.91;1758570;80;20986;-74
2023/04/06 03:13:03;;;;;;;45.17;20.32;;;;;;;-2.06;63.11;100400.48;1763558;80;20997;-74
2023/04/06 03:15:31;;;;;;;46.90;21.73;;;;;;;-2.08;63.17;100407.69;1738135;80;21488;-74
2023/04/06 03:17:58;;;;;;;64.32;23.57;;;;;;;-2.08;63.10;100407.27;1764404;80;21026;-75
2023/04/06 03:20:24;;;;;;;45.78;17.75;;;;;;;-2.11;63.04;100404.66;1758347;80;20951;-74
2023/04/06 03:22:50;;;;;;;48.60;19.52;;;;;;;-2.13;63.01;100405.48;1763244;80;21085;-74
2023/04/06 03:25:16;;;;;;;46.73;21.05;;;;;;;-2.18;63.03;100407.98;1762416;80;21018;-72
2023/04/06 03:27:43;;;;;;;52.45;23.83;;;;;;;-2.16;63.23;100411.41;1767599;80;20967;-74
2023/04/06 03:30:11;;;;;;;47.40;22.45;;;;;;;-2.15;63.13;100408.03;1786374;79;20945;-73
2023/04/06 03:32:38;;;;;;;53.80;22.00;;;;;;;-2.18;63.14;100407.98;1781532;80;21095;-72
2023/04/06 03:35:07;;;;;;;46.35;20.23;;;;;;;-2.19;63.26;100407.95;1764200;80;20996;-71
2023/04/06 03:37:35;;;;;;;43.90;17.55;;;;;;;-2.21;63.29;100409.61;1766316;80;20983;-73
2023/04/06 03:40:05;;;;;;;41.75;18.55;;;;;;;-2.22;63.32;100406.20;1700197;81;21052;-74
2023/04/06 03:42:32;;;;;;;45.92;20.27;;;;;;;-2.18;63.45;100404.15;1766506;80;20990;-73
2023/04/06 03:44:59;;;;;;;44.63;20.55;;;;;;;-2.16;63.43;100401.17;1764046;80;21068;-74
2023/04/06 03:47:25;;;;;;;46.08;21.27;;;;;;;-2.16;63.44;100407.56;1759292;80;20990;-72
2023/04/06 03:49:51;;;;;;;48.13;22.40;;;;;;;-2.17;63.44;100403.73;1760729;80;20969;-71
2023/04/06 03:52:18;;;;;;;54.23;21.25;;;;;;;-2.18;63.56;100413.11;1761712;80;21097;-73
2023/04/06 03:54:46;;;;;;;66.02;21.70;;;;;;;-2.13;63.66;100414.04;1757525;80;21034;-74
2023/04/06 03:57:12;;;;;;;65.40;22.75;;;;;;;-2.11;63.52;100416.18;1777695;80;21091;-74
2023/04/06 03:59:39;;;;;;;63.95;20.88;;;;;;;-2.13;63.46;100406.36;1763833;80;21056;-74
2023/04/06 04:02:05;;;;;;;34.05;15.28;;;;;;;-2.13;63.55;100408.92;1764476;80;20992;-74
2023/04/06 04:04:34;;;;;;;23.15;12.03;;;;;;;-2.10;63.54;100416.64;1778611;80;21078;-74
2023/04/06 04:07:01;;;;;;;37.70;17.82;;;;;;;-2.15;63.32;100415.70;1767851;80;21319;-70
2023/04/06 04:09:27;;;;;;;46.28;18.75;;;;;;;-2.20;63.56;100412.21;1762317;80;21000;-74
2023/04/06 04:11:53;;;;;;;39.78;18.70;;;;;;;-2.23;63.58;100413.45;1763335;80;21060;-72
2023/04/06 04:14:20;;;;;;;24.23;12.30;;;;;;;-2.27;63.70;100415.50;1782343;80;21506;-69
2023/04/06 04:16:46;;;;;;;20.77;10.73;;;;;;;-2.29;63.70;100426.14;1776988;80;21045;-74
2023/04/06 04:19:14;;;;;;;25.27;13.10;;;;;;;-2.34;63.58;100421.37;1765714;80;21108;-73
2023/04/06 04:21:47;;;;;;;28.23;13.43;;;;;;;-2.41;63.52;100427.20;1763065;80;21551;-70
2023/04/06 04:24:16;;;;;;;25.97;12.78;;;;;;;-2.49;63.48;100429.23;1761772;80;21043;-73
2023/04/06 04:26:42;;;;;;;36.30;15.45;;;;;;;-2.55;63.63;100430.41;1761833;80;21027;-73
2023/04/06 04:29:09;;;;;;;30.32;14.78;;;;;;;-2.57;63.69;100432.08;1762823;80;21500;-73
2023/04/06 04:31:39;;;;;;;25.90;12.03;;;;;;;-2.63;63.71;100431.98;1784094;80;21009;-73
2023/04/06 04:34:06;;;;;;;26.37;11.45;;;;;;;-2.65;63.88;100441.30;1760595;80;21073;-73
2023/04/06 04:36:33;;;;;;;24.70;11.10;;;;;;;-2.68;63.90;100438.70;1769432;80;21022;-73
2023/04/06 04:39:02;;;;;;;21.65;11.25;;;;;;;-2.70;63.87;100440.35;1757984;80;21013;-73
2023/04/06 04:41:28;;;;;;;15.35;8.55;;;;;;;-2.69;63.96;100439.51;1759521;80;21568;-75
2023/04/06 04:43:55;;;;;;;18.45;9.10;;;;;;;-2.64;64.06;100437.91;1762035;80;21027;-74
2023/04/06 04:46:21;;;;;;;15.72;8.70;;;;;;;-2.56;64.38;100435.48;1761124;80;20955;-74
2023/04/06 04:48:47;;;;;;;17.00;7.10;;;;;;;-2.45;64.40;100438.23;1768402;80;21055;-76
2023/04/06 04:51:13;;;;;;;17.32;8.40;;;;;;;-2.35;64.51;100430.74;1762773;80;20964;-73
2023/04/06 04:53:40;;;;;;;16.70;8.70;;;;;;;-2.24;64.41;100430.92;1760695;80;20968;-75
2023/04/06 04:56:06;;;;;;;19.20;10.00;;;;;;;-2.15;64.29;100441.30;1759976;80;21077;-73
2023/04/06 04:58:32;;;;;;;21.02;10.82;;;;;;;-2.09;64.29;100431.14;1765996;80;21026;-75
2023/04/06 05:00:58;;;;;;;35.48;10.65;;;;;;;-2.01;64.32;100432.98;1764148;80;21083;-70
2023/04/06 05:03:27;;;;;;;24.10;12.30;;;;;;;-1.92;64.42;100430.55;1759942;80;21014;-78
2023/04/06 05:05:53;;;;;;;19.70;11.65;;;;;;;-1.80;64.57;100434.55;1762223;80;21568;-74
2023/04/06 05:08:23;;;;;;;24.87;13.32;;;;;;;-1.68;64.63;100430.02;1761886;80;21487;-73
2023/04/06 05:10:48;;;;;;;25.35;11.40;;;;;;;-1.58;64.63;100444.67;1761392;80;21303;-69
2023/04/06 05:13:15;;;;;;;37.03;12.50;;;;;;;-1.46;64.68;100441.41;1765484;80;21180;-73
2023/04/06 05:15:41;;;;;;;23.20;11.03;;;;;;;-1.38;64.55;100437.25;1762561;80;21308;-74
2023/04/06 05:18:08;;;;;;;26.77;12.07;;;;;;;-1.30;64.48;100438.20;1767353;80;21445;-75
2023/04/06 05:20:35;;;;;;;24.67;11.33;;;;;;;-1.23;64.49;100437.45;1764305;80;21533;-77
2023/04/06 05:23:02;;;;;;;28.55;11.12;;;;;;;-1.16;64.52;100434.10;1768668;80;21088;-75
2023/04/06 05:25:29;;;;;;;37.55;11.70;;;;;;;-1.03;64.68;100439.39;1781528;78;21016;-73
2023/04/06 05:27:56;;;;;;;25.45;10.60;;;;;;;-0.92;64.72;100433.95;1764252;80;21098;-81
2023/04/06 05:30:22;;;;;;;22.73;10.93;;;;;;;-0.78;64.76;100441.37;1766732;80;21101;-73
2023/04/06 05:32:48;;;;;;;22.48;11.05;;;;;;;-0.62;65.06;100437.66;1764338;80;21030;-78
2023/04/06 05:35:15;;;;;;;22.77;10.68;;;;;;;-0.48;64.92;100432.23;1763641;80;21464;-79
2023/04/06 05:37:42;;;;;;;19.48;11.15;;;;;;;-0.32;65.02;100432.80;1767702;80;21018;-77
2023/04/06 05:40:08;;;;;;;24.00;12.47;;;;;;;-0.20;65.09;100419.63;1767803;80;21030;-75
2023/04/06 05:42:45;;;;;;;23.83;11.65;;;;;;;0.06;65.24;100439.09;1767787;80;21442;-77
2023/04/06 05:45:16;;;;;;;17.82;10.35;;;;;;;0.24;65.03;100439.63;1768191;80;21055;-70
2023/04/06 05:47:40;;;;;;;17.05;10.50;;;;;;;0.39;65.19;100433.28;1764615;80;20937;-71
2023/04/06 05:50:07;;;;;;;16.60;9.55;;;;;;;0.62;65.10;100436.84;1777277;78;21060;-72
2023/04/06 05:52:34;;;;;;;18.05;8.28;;;;;;;0.80;65.08;100436.05;1765776;80;22244;-71
2023/04/06 05:55:00;;;;;;;17.98;9.15;;;;;;;1.00;65.17;100429.70;1758685;80;21492;-72
2023/04/06 05:57:26;;;;;;;19.12;10.00;;;;;;;1.24;65.13;100434.48;1757475;80;20939;-74
2023/04/06 05:59:57;;;;;;;15.93;9.55;;;;;;;1.41;65.20;100439.23;1764036;80;21065;-74
2023/04/06 06:02:25;;;;;;;12.70;8.33;;;;;;;1.64;65.20;100441.82;1747030;80;21747;-72
2023/04/06 06:04:54;;;;;;;25.02;8.48;;;;;;;1.90;65.24;100439.23;1755992;80;21123;-73
2023/04/06 06:07:27;;;;;;;20.02;11.33;;;;;;;2.17;65.23;100434.94;1784006;80;21036;-76
2023/04/06 06:09:51;;;;;;;20.68;12.13;;;;;;;2.39;64.95;100436.61;1773386;80;21162;-73
2023/04/06 06:12:17;;;;;;;26.82;12.63;;;;;;;2.63;64.97;100438.67;1780747;80;21034;-75
2023/04/06 06:14:45;;;;;;;19.07;9.78;;;;;;;2.85;64.74;100440.30;1781804;80;21009;-71
2023/04/06 06:17:12;;;;;;;21.65;7.92;;;;;;;3.08;64.67;100430.30;1781233;80;21066;-71
2023/04/06 06:19:38;;;;;;;15.87;7.13;;;;;;;3.26;64.38;100435.81;1781480;80;21003;-80
2023/04/06 06:22:04;;;;;;;41.53;20.05;;;;;;;3.42;64.15;100443.01;1784618;80;21056;-81
2023/04/06 06:24:31;;;;;;;48.80;24.85;;;;;;;3.56;64.12;100436.05;1781298;80;20996;-70
2023/04/06 06:26:58;;;;;;;17.57;10.43;;;;;;;3.79;63.99;100434.14;1744103;80;20980;-71
2023/04/06 06:29:24;;;;;;;12.18;4.62;;;;;;;4.07;64.02;100437.78;1762753;80;20922;-73
2023/04/06 06:31:57;;;;;;;5.75;3.10;;;;;;;4.36;63.67;100437.48;1759893;80;21066;-71
2023/04/06 06:34:20;;;;;;;7.37;3.30;;;;;;;4.64;63.55;100428.98;1764875;80;21058;-73
2023/04/06 06:36:46;;;;;;;6.67;2.90;;;;;;;4.84;63.15;100422.27;1760228;80;21058;-72
2023/04/06 06:39:14;;;;;;;5.05;2.42;;;;;;;5.11;62.50;100428.83;1762450;80;21028;-71
2023/04/06 06:41:41;;;;;;;2.42;2.02;;;;;;;5.38;62.34;100428.03;1761330;80;21083;-72
2023/04/06 06:44:07;;;;;;;3.87;2.25;;;;;;;5.68;62.62;100423.24;1760001;80;21062;-68
2023/04/06 06:46:33;;;;;;;11.65;2.65;;;;;;;5.90;62.36;100422.01;1763665;80;21014;-66
2023/04/06 06:49:02;;;;;;;7.08;3.15;;;;;;;6.00;62.08;100425.34;1761470;80;20999;-66
2023/04/06 06:51:29;;;;;;;4.92;2.10;;;;;;;5.88;61.96;100426.39;1765651;80;21530;-68
2023/04/06 06:53:58;;;;;;;5.87;2.50;;;;;;;5.80;61.55;100421.77;1762906;80;21032;-68
2023/04/06 06:56:23;;;;;;;4.90;1.98;;;;;;;5.87;61.40;100422.06;1765370;80;21017;-66
2023/04/06 06:58:50;;;;;;;2.45;1.60;;;;;;;6.08;61.26;100425.19;1765350;80;21063;-67
2023/04/06 07:01:16;;;;;;;7.17;3.02;;;;;;;6.33;61.78;100429.08;1768813;80;21030;-67
2023/04/06 07:03:47;;;;;;;35.48;16.95;;;;;;;6.31;61.64;100428.25;1762099;80;21531;-65
2023/04/06 07:06:18;;;;;;;4.80;2.17;;;;;;;6.83;61.41;100427.20;1757996;80;21623;-66
2023/04/06 07:08:49;;;;;;;3.25;1.70;;;;;;;7.23;60.52;100432.88;1737598;80;21588;-66
2023/04/06 07:11:15;;;;;;;4.42;1.98;;;;;;;7.63;60.98;100430.20;1763360;80;20982;-66
2023/04/06 07:13:42;;;;;;;6.22;1.87;;;;;;;8.16;60.88;100427.16;1760064;80;21001;-67
2023/04/06 07:16:09;;;;;;;4.33;2.20;;;;;;;8.69;60.98;100418.37;1750445;81;21115;-66
2023/04/06 07:18:35;;;;;;;4.50;2.30;;;;;;;9.30;60.83;100423.95;1756148;81;20991;-65
2023/04/06 07:21:01;;;;;;;2.55;1.47;;;;;;;9.74;60.63;100423.84;1762098;80;21016;-65
2023/04/06 07:23:33;;;;;;;4.08;1.87;;;;;;;10.20;60.30;100419.72;1749525;80;21056;-66
2023/04/06 07:26:01;;;;;;;3.72;1.60;;;;;;;10.67;59.76;100420.25;1747216;81;21561;-67
2023/04/06 07:28:28;;;;;;;4.12;1.40;;;;;;;11.19;58.51;100422.23;1761531;80;21051;-67
2023/04/06 07:30:54;;;;;;;4.65;1.90;;;;;;;11.71;58.86;100417.55;1751153;81;21295;-67
2023/04/06 07:33:20;;;;;;;3.25;1.80;;;;;;;11.72;58.20;100417.09;1754455;81;20941;-66
2023/04/06 07:35:47;;;;;;;3.15;1.75;;;;;;;11.68;58.84;100408.52;1753602;81;21476;-66
2023/04/06 07:38:13;;;;;;;4.85;2.83;;;;;;;11.72;59.08;100411.39;1755308;80;20950;-66
2023/04/06 07:40:39;;;;;;;7.35;2.60;;;;;;;11.74;58.99;100406.96;1759076;81;21092;-67
2023/04/06 07:43:06;;;;;;;5.22;4.22;;;;;;;12.46;58.87;100403.05;1764010;80;21544;-66
2023/04/06 07:45:34;;;;;;;8.20;3.75;;;;;;;12.58;57.44;100410.39;1774618;80;20922;-65
2023/04/06 07:48:03;;;;;;;4.78;2.20;;;;;;;12.56;57.97;100406.98;1780834;80;21725;-66
2023/04/06 07:50:30;;;;;;;6.58;2.08;;;;;;;13.16;59.04;100405.10;1778176;80;20938;-65
2023/04/06 07:52:57;;;;;;;8.05;2.55;;;;;;;14.36;59.36;100401.81;1778981;79;21469;-66
2023/04/06 07:55:25;;;;;;;6.45;2.50;;;;;;;15.65;59.10;100402.67;1781306;80;20994;-69
2023/04/06 07:57:51;;;;;;;;;;;;;;;16.39;57.03;100393.11;1780436;79;20967;-70
2023/04/06 08:00:17;;;;;;;5.37;2.03;;;;;;;16.32;54.96;100396.09;1776010;78;20477;-71
2023/04/06 08:02:44;;;;;;;5.22;2.30;;;;;;;16.31;56.12;100397.05;1779413;79;21089;-71
2023/04/06 08:05:10;;;;;;;4.27;2.60;;;;;;;16.27;56.21;100398.19;1778210;79;21089;-70
2023/04/06 08:07:38;;;;;;;4.10;2.20;;;;;;;16.09;55.42;100404.54;1776363;80;21067;-70
2023/04/06 08:10:05;;;;;;;4.17;2.45;;;;;;;16.12;55.90;100409.63;1772389;80;21510;-68
2023/04/06 08:12:33;;;;;;;4.65;2.30;;;;;;;17.16;56.74;100403.70;1765718;79;21062;-68
2023/04/06 08:15:00;;;;;;;3.77;2.25;;;;;;;18.16;54.95;100390.57;1769947;78;21098;-68
2023/04/06 08:17:29;;;;;;;4.12;2.90;;;;;;;18.25;53.96;100394.73;1769297;79;20948;-71
2023/04/06 08:19:58;;;;;;;3.47;2.40;;;;;;;17.99;53.54;100395.20;1768562;79;21110;-68
2023/04/06 08:22:27;;;;;;;7.12;3.15;;;;;;;17.27;52.59;100399.91;1769864;79;21001;-74
2023/04/06 08:24:53;;;;;;;5.35;2.50;;;;;;;16.59;52.38;100404.59;1765515;79;21146;-69
2023/04/06 08:27:19;;;;;;;8.18;2.80;;;;;;;15.75;51.64;100407.84;1766608;79;21044;-71
2023/04/06 08:29:46;;;;;;;5.33;2.80;;;;;;;15.08;50.87;100411.61;1764064;79;21083;-70
2023/04/06 08:32:12;;;;;;;4.45;2.92;;;;;;;14.44;50.89;100407.52;1763203;79;21068;-69
2023/04/06 08:34:38;;;;;;;5.87;4.42;;;;;;;13.99;51.00;100405.02;1770194;79;21020;-75
2023/04/06 08:37:09;;;;;;;;;;;;;;;13.63;50.83;100407.22;1767944;79;21054;-71
2023/04/06 08:39:35;;;;;;;4.35;2.60;;;;;;;13.28;49.27;100406.79;1767630;80;20216;-70
2023/04/06 08:42:02;;;;;;;8.85;3.50;;;;;;;13.02;50.13;100407.49;1765079;80;21020;-71
2023/04/06 08:44:33;;;;;;;4.70;3.35;;;;;;;12.72;49.45;100402.75;1767590;80;20965;-72
2023/04/06 08:47:05;;;;;;;5.08;2.67;;;;;;;12.41;49.42;100410.28;1767351;79;20976;-70
2023/04/06 08:49:31;;;;;;;7.30;2.65;;;;;;;13.35;51.00;100404.24;1738588;80;21497;-67
2023/04/06 08:52:03;;;;;;;2.70;2.27;;;;;;;13.20;48.11;100411.05;1764249;79;21059;-70
2023/04/06 08:54:28;;;;;;;10.23;2.20;;;;;;;12.37;48.56;100407.39;1768550;80;20982;-67
2023/04/06 08:56:56;;;;;;;6.03;3.22;;;;;;;14.40;51.15;100410.41;1770088;79;20969;-64
2023/04/06 08:59:25;;;;;;;5.05;2.65;;;;;;;16.80;49.84;100400.27;1767749;79;21013;-69
2023/04/06 09:01:55;;;;;;;2.72;2.08;;;;;;;18.20;48.02;100402.61;1769012;79;21113;-69
2023/04/06 09:04:21;;;;;;;7.85;2.33;;;;;;;19.60;49.27;100396.20;1771842;80;21061;-68
2023/04/06 09:06:50;;;;;;;5.37;2.58;;;;;;;20.77;48.72;100389.00;1771543;79;21044;-68
2023/04/06 09:09:15;;;;;;;5.12;2.25;;;;;;;21.83;48.75;100394.19;1767693;80;21588;-71
2023/04/06 09:11:48;;;;;;;5.62;2.42;;;;;;;22.04;47.45;100392.39;1768223;80;21168;-68
2023/04/06 09:14:25;;;;;;;4.67;2.85;;;;;;;22.70;47.08;100380.06;1731983;79;20998;-67
2023/04/06 09:16:50;;;;;;;3.70;2.12;;;;;;;23.69;47.79;100381.44;1762202;80;21086;-71
2023/04/06 09:19:20;;;;;;;3.33;2.37;;;;;;;22.37;44.21;100381.18;1769906;79;21494;-63
2023/04/06 09:21:46;;;;;;;3.90;2.33;;;;;;;22.65;45.25;100390.77;1773546;79;21005;-69
2023/04/06 09:24:12;;;;;;;3.02;1.60;;;;;;;21.66;43.73;100384.47;1773471;79;20979;-68
2023/04/06 09:26:46;;;;;;;3.77;2.00;;;;;;;21.78;44.31;100383.09;1770727;79;20988;-66
2023/04/06 09:29:26;;;;;;;7.97;2.30;;;;;;;21.24;42.51;100381.69;1766438;79;21563;-68
2023/04/06 09:32:03;;;;;;;5.00;2.50;;;;;;;22.00;42.15;100376.32;1743622;80;21482;-70
2023/04/06 09:34:48;;;;;;;4.12;2.47;;;;;;;22.81;42.76;100368.48;1767969;79;21033;-69
2023/04/06 09:37:21;;;;;;;;;;;;;;;24.25;43.22;100368.67;1737879;79;21090;-69
2023/04/06 09:39:48;;;;;;;4.58;2.02;;;;;;;25.58;40.61;100365.59;1772451;79;20269;-71
2023/04/06 09:42:25;;;;;;;2.45;1.70;;;;;;;26.53;41.56;100369.31;1770860;79;21040;-71
2023/04/06 09:44:54;;;;;;;3.17;2.02;;;;;;;25.97;39.39;100371.95;1774274;79;21002;-69
2023/04/06 09:47:22;;;;;;;4.28;1.85;;;;;;;24.53;39.50;100369.62;1766332;79;21088;-69
2023/04/06 09:49:57;;;;;;;3.02;1.95;;;;;;;23.20;38.68;100376.59;1745417;79;21391;-70
2023/04/06 09:52:28;;;;;;;51.77;3.92;;;;;;;21.77;36.67;100382.74;1770796;80;21391;-71
2023/04/06 09:54:58;;;;;;;2.92;2.20;;;;;;;20.03;35.56;100386.40;1776220;79;21056;-70
2023/04/06 09:57:37;;;;;;;3.17;1.75;;;;;;;18.60;34.00;100381.34;1769358;79;20982;-69
2023/04/06 10:00:11;;;;;;;2.47;1.57;;;;;;;17.37;36.75;100386.98;1778430;80;21410;-71
2023/04/06 10:03:14;;;;;;;3.95;1.70;;;;;;;16.26;36.16;100388.56;1765316;79;21106;-69
2023/04/06 10:05:58;;;;;;;3.08;1.77;;;;;;;15.36;36.38;100390.72;1769321;79;21600;-68
2023/04/06 10:08:27;;;;;;;2.52;1.50;;;;;;;14.05;35.41;100395.51;1772824;79;21015;-70
2023/04/06 10:11:00;;;;;;;9.63;1.90;;;;;;;12.72;35.05;100394.89;1767534;79;22121;-68
2023/04/06 10:13:24;;;;;;;2.87;1.77;;;;;;;13.02;37.22;100401.41;1773028;79;21012;-69
2023/04/06 10:15:51;;;;;;;;;;;;;;;15.30;37.67;100393.70;1771673;79;21006;-69
2023/04/06 10:18:20;;;;;;;2.12;1.40;;;;;;;16.46;35.58;100390.46;1765612;79;20163;-68
2023/04/06 10:20:55;;;;;;;2.37;1.30;;;;;;;17.08;35.90;100385.72;1769714;79;21065;-70
2023/04/06 10:23:37;;;;;;;2.05;1.17;;;;;;;17.16;34.71;100382.12;1765943;80;21520;-70
2023/04/06 10:26:05;;;;;;;2.12;1.10;;;;;;;16.65;35.60;100383.12;1770734;79;21639;-70
2023/04/06 10:28:34;;;;;;;3.20;1.15;;;;;;;18.95;37.11;100373.10;1767625;79;21130;-71
2023/04/06 10:31:04;;;;;;;3.42;1.30;;;;;;;20.67;35.53;100361.53;1770835;79;20993;-71
2023/04/06 10:33:32;;;;;;;3.15;1.30;;;;;;;18.26;32.00;100378.39;1771481;79;21680;-71
2023/04/06 10:36:00;;;;;;;3.33;1.40;;;;;;;15.34;32.02;100375.47;1764923;79;21037;-70
2023/04/06 10:38:35;;;;;;;1.40;1.05;;;;;;;13.44;33.33;100389.37;1762717;79;20948;-72
2023/04/06 10:41:13;;;;;;;1.65;0.85;;;;;;;13.27;34.14;100382.78;1769321;79;21023;-70
2023/04/06 10:43:41;;;;;;;1.70;0.90;;;;;;;13.52;34.68;100383.28;1766863;79;21128;-70
2023/04/06 10:46:10;;;;;;;1.52;0.88;;;;;;;14.97;34.11;100374.91;1760810;79;20982;-70
2023/04/06 10:48:46;;;;;;;6.03;1.35;;;;;;;13.87;32.39;100378.92;1768740;79;21041;-71
2023/04/06 10:51:17;;;;;;;2.85;1.40;;;;;;;12.93;33.29;100379.94;1761338;80;21041;-71
2023/04/06 10:53:58;;;;;;;;;;;;;;;;;;;;;
2023/04/06 10:56:18;;;;;;;2.60;1.07;;;;;;;13.54;34.82;100378.82;1771164;79;20968;-77
2023/04/06 10:58:51;;;;;;;2.10;1.15;;;;;;;14.84;34.08;100377.81;1766740;79;21047;-74
2023/04/06 11:01:19;;;;;;;1.30;1.10;;;;;;;15.16;32.92;100373.89;1767447;80;20974;-72
2023/04/06 11:03:55;;;;;;;2.77;1.40;;;;;;;14.68;32.65;100375.66;1777056;79;20967;-67
2023/04/06 11:06:29;;;;;;;2.92;1.10;;;;;;;14.35;32.84;100373.85;1764197;79;21009;-67
2023/04/06 11:08:57;;;;;;;2.70;1.32;;;;;;;14.53;33.73;100359.75;1766824;79;21598;-81
2023/04/06 11:11:28;;;;;;;2.15;1.40;;;;;;;15.60;34.13;100360.84;1770137;79;21229;-68
2023/04/06 11:14:09;;;;;;;;;;;;;;;;;;;;;
2023/04/06 11:16:33;;;;;;;2.02;1.20;;;;;;;15.84;33.10;100367.80;1760361;79;21034;-71
2023/04/06 11:19:05;;;;;;;2.10;1.22;;;;;;;15.70;33.06;100369.07;1772856;80;21482;-70
2023/04/06 11:21:47;;;;;;;1.67;1.10;;;;;;;15.42;33.40;100373.26;1769555;80;20977;-72
2023/04/06 11:24:19;;;;;;;2.45;1.00;;;;;;;15.58;33.58;100367.13;1771448;79;21483;-72